Time;durP1;ratioP1;P1;durP2;ratioP2;P2;SDS_P1;SDS_P2;PMS_P1;PMS_P2;Temp;Humidity;BMP_temperature;BMP_pressure;BME280_temperature;BME280_humidity;BME280_pressure;Samples;Min_cycle;Max_cycle;Signal;HPM_P1;HPM_P2
2022/07/03 00:00:50;;;;;;;8.68;5.32;;;;;;;26.51;51.98;101181.44;5036571;28;20050;-78
2022/07/03 00:03:17;;;;;;;9.82;5.47;;;;;;;26.54;51.97;101183.00;5036472;28;20045;-78
2022/07/03 00:05:45;;;;;;;12.02;5.88;;;;;;;26.55;51.61;101190.09;5036271;28;20045;-78
2022/07/03 00:08:12;;;;;;;12.65;5.80;;;;;;;26.55;51.66;101179.25;5036799;28;20049;-78
2022/07/03 00:10:39;;;;;;;8.15;5.25;;;;;;;26.57;51.75;101180.75;5037333;28;20041;-78
2022/07/03 00:13:07;;;;;;;11.43;5.25;;;;;;;26.59;51.57;101180.59;5036500;28;20037;-78
2022/07/03 00:15:34;;;;;;;9.13;5.32;;;;;;;26.59;51.67;101173.28;5037687;28;20049;-78
2022/07/03 00:18:01;;;;;;;11.52;4.90;;;;;;;26.59;51.66;101181.44;5037169;28;20505;-78
2022/07/03 00:20:35;;;;;;;9.98;5.68;;;;;;;26.61;51.24;101178.53;5037107;28;20041;-78
2022/07/03 00:23:09;;;;;;;6.28;5.15;;;;;;;26.63;51.64;101190.94;5037206;28;20399;-78
2022/07/03 00:25:39;;;;;;;7.90;5.00;;;;;;;26.63;51.27;101177.38;5035550;28;20057;-78
2022/07/03 00:28:08;;;;;;;7.82;4.53;;;;;;;26.65;51.34;101184.47;5037353;28;20057;-77
2022/07/03 00:30:36;;;;;;;7.90;4.72;;;;;;;26.65;51.15;101189.91;5036875;28;20052;-78
2022/07/03 00:33:04;;;;;;;7.45;4.90;;;;;;;26.66;51.26;101186.16;5035394;28;20054;-77
2022/07/03 00:35:34;;;;;;;8.85;4.95;;;;;;;26.67;51.14;101183.31;5034665;28;20056;-76
2022/07/03 00:38:02;;;;;;;7.38;5.60;;;;;;;26.67;50.73;101185.19;5034783;28;20057;-76
2022/07/03 00:40:29;;;;;;;10.80;5.00;;;;;;;26.69;51.27;101191.28;5036175;28;20049;-76
2022/07/03 00:42:59;;;;;;;8.35;4.53;;;;;;;26.69;50.90;101183.13;5035509;28;20049;-76
2022/07/03 00:45:26;;;;;;;7.32;4.85;;;;;;;26.70;50.93;101188.41;5036190;28;20049;-76
2022/07/03 00:47:55;;;;;;;6.13;4.82;;;;;;;26.71;50.98;101183.81;5036355;28;20045;-76
2022/07/03 00:50:25;;;;;;;6.07;4.70;;;;;;;26.72;50.52;101185.50;5036402;28;20052;-76
2022/07/03 00:52:57;;;;;;;8.38;5.03;;;;;;;26.72;50.81;101188.22;5035832;28;20050;-76
2022/07/03 00:55:27;;;;;;;6.53;4.28;;;;;;;26.73;50.91;101189.91;5036595;28;20055;-77
2022/07/03 00:57:56;;;;;;;7.47;4.80;;;;;;;26.75;50.79;101196.03;5036200;28;20049;-77
2022/07/03 01:00:24;;;;;;;5.13;4.63;;;;;;;26.74;50.94;101188.88;5035291;28;20049;-76
2022/07/03 01:02:55;;;;;;;6.65;4.47;;;;;;;26.76;50.66;101187.69;5035627;28;20045;-76
2022/07/03 01:05:34;;;;;;;7.88;5.07;;;;;;;26.76;50.65;101182.25;5036285;28;20057;-76
2022/07/03 01:08:16;;;;;;;7.25;4.68;;;;;;;26.77;50.68;101183.09;5034427;28;20053;-76
2022/07/03 01:10:55;;;;;;;6.88;4.80;;;;;;;26.79;50.73;101189.22;5035329;28;20060;-76
2022/07/03 01:13:36;;;;;;;8.75;4.90;;;;;;;26.79;51.01;101187.34;5035795;28;20389;-76
2022/07/03 01:16:30;;;;;;;7.20;4.40;;;;;;;26.80;50.66;101182.78;5035006;28;20045;-76
2022/07/03 01:19:23;;;;;;;8.50;5.07;;;;;;;26.81;50.88;101184.47;5036301;28;20060;-75
2022/07/03 01:22:12;;;;;;;8.27;4.90;;;;;;;26.83;50.60;101177.00;5034246;28;20052;-76
2022/07/03 01:25:14;;;;;;;5.95;5.00;;;;;;;26.83;50.91;101177.00;5035171;28;20093;-77
2022/07/03 01:27:50;;;;;;;8.02;4.60;;;;;;;26.84;50.93;101178.69;5017969;28;20516;-77
2022/07/03 01:30:20;;;;;;;7.40;4.88;;;;;;;26.84;50.76;101181.41;5035263;28;20045;-76
2022/07/03 01:32:57;;;;;;;6.47;4.65;;;;;;;26.85;50.78;101177.66;5035189;28;20049;-76
2022/07/03 01:36:06;;;;;;;5.57;4.53;;;;;;;26.86;50.88;101182.09;5035534;28;20465;-77
2022/07/03 01:38:40;;;;;;;8.40;5.38;;;;;;;26.86;50.72;101177.50;5018456;28;20064;-76
2022/07/03 01:41:09;;;;;;;6.75;4.47;;;;;;;26.88;50.70;101174.59;5035595;28;20054;-76
2022/07/03 01:43:41;;;;;;;7.03;5.35;;;;;;;26.88;50.76;101171.88;5035412;28;20049;-76
2022/07/03 01:46:11;;;;;;;;;;;;;;;26.89;50.67;101173.56;5035408;28;20064;-77
2022/07/03 01:48:43;;;;;;;5.03;4.43;;;;;;;26.91;50.50;101182.41;5034996;28;20303;-77
2022/07/03 01:51:15;;;;;;;5.60;4.70;;;;;;;26.89;50.84;101176.28;5035109;28;20049;-77
2022/07/03 01:53:48;;;;;;;7.55;5.28;;;;;;;26.92;50.54;101178.66;5035198;28;20045;-77
2022/07/03 01:56:18;;;;;;;5.10;4.60;;;;;;;26.92;50.67;101164.25;5034844;28;20388;-77
2022/07/03 01:58:46;;;;;;;7.32;4.63;;;;;;;26.92;50.64;101167.78;5034370;28;20115;-76
2022/07/03 02:01:20;;;;;;;5.32;4.45;;;;;;;26.94;50.54;101162.19;5034260;28;20516;-77
2022/07/03 02:04:11;;;;;;;5.90;5.25;;;;;;;26.95;50.69;101161.19;5035195;28;20480;-77
2022/07/03 02:06:51;;;;;;;6.07;4.82;;;;;;;26.94;50.82;101157.63;5014896;28;20064;-77
2022/07/03 02:09:24;;;;;;;8.32;4.95;;;;;;;26.95;50.70;101156.59;5033678;28;20072;-78
2022/07/03 02:11:52;;;;;;;6.18;4.80;;;;;;;26.95;50.79;101153.03;5034836;28;20056;-78
2022/07/03 02:14:24;;;;;;;5.75;5.13;;;;;;;26.96;50.66;101155.56;5034423;28;20038;-78
2022/07/03 02:17:16;;;;;;;11.18;4.97;;;;;;;26.97;50.59;101153.69;5035239;28;20052;-77
2022/07/03 02:19:54;;;;;;;5.80;4.72;;;;;;;26.98;50.77;101152.66;5033778;28;20062;-78
2022/07/03 02:22:44;;;;;;;5.53;4.82;;;;;;;26.98;50.93;101153.53;5035034;28;20092;-77
2022/07/03 02:25:26;;;;;;;7.47;5.40;;;;;;;26.99;50.84;101146.22;5033197;28;20041;-78
2022/07/03 02:28:21;;;;;;;6.78;5.00;;;;;;;26.99;50.89;101143.50;5034433;28;20041;-76
2022/07/03 02:30:55;;;;;;;6.53;4.80;;;;;;;27.00;50.55;101153.34;5034485;28;20045;-76
2022/07/03 02:33:26;;;;;;;6.05;4.93;;;;;;;27.01;50.84;101152.31;5034186;28;20044;-77
2022/07/03 02:35:56;;;;;;;5.80;4.67;;;;;;;27.01;50.88;101146.88;5033610;28;20076;-78
2022/07/03 02:38:26;;;;;;;6.28;4.35;;;;;;;27.02;50.72;101152.16;5034373;28;20049;-79
2022/07/03 02:41:12;;;;;;;5.55;4.65;;;;;;;27.03;50.77;101155.72;5035155;28;20057;-77
2022/07/03 02:43:49;;;;;;;6.43;4.88;;;;;;;27.02;50.77;101154.00;5035578;28;20048;-83
2022/07/03 02:46:50;;;;;;;7.13;4.78;;;;;;;27.03;50.50;101159.28;5017824;28;20049;-78
2022/07/03 02:49:48;;;;;;;6.20;4.93;;;;;;;27.04;50.74;101155.53;5034872;28;20049;-77
2022/07/03 02:52:44;;;;;;;5.78;4.70;;;;;;;27.04;50.57;101147.38;5034982;28;20054;-77
2022/07/03 02:55:38;;;;;;;8.48;5.60;;;;;;;27.05;50.52;101151.78;5034815;28;20068;-77
2022/07/03 02:58:21;;;;;;;5.68;5.10;;;;;;;27.05;50.46;101149.06;5016731;28;20058;-78
2022/07/03 03:00:58;;;;;;;7.72;4.82;;;;;;;27.05;50.38;101153.66;5034362;28;20068;-78
2022/07/03 03:03:29;;;;;;;6.78;5.25;;;;;;;27.05;50.61;101149.06;5033285;28;20041;-78
2022/07/03 03:06:03;;;;;;;6.15;5.28;;;;;;;27.06;50.12;101147.19;5034296;28;20053;-78
2022/07/03 03:08:35;;;;;;;7.57;5.10;;;;;;;27.06;50.22;101161.66;5034648;28;20045;-78
2022/07/03 03:11:08;;;;;;;8.57;5.18;;;;;;;27.06;50.50;101145.34;5033613;28;20052;-78
2022/07/03 03:13:36;;;;;;;6.47;4.97;;;;;;;27.07;50.36;101157.06;5033624;28;20045;-78
2022/07/03 03:16:09;;;;;;;6.80;4.43;;;;;;;27.07;50.62;101146.19;5034499;28;20076;-78
2022/07/03 03:18:38;;;;;;;7.88;5.10;;;;;;;27.08;50.55;101153.31;5034381;28;20053;-78
2022/07/03 03:21:09;;;;;;;5.85;5.07;;;;;;;27.09;50.48;101149.56;5034105;28;20050;-78
2022/07/03 03:23:48;;;;;;;8.10;4.70;;;;;;;27.09;50.73;101155.84;5032940;28;20054;-77
2022/07/03 03:26:24;;;;;;;8.27;5.15;;;;;;;27.10;50.51;101149.44;5036099;28;20064;-77
2022/07/03 03:28:52;;;;;;;10.23;5.38;;;;;;;27.10;51.02;101146.72;5037314;28;20049;-78
2022/07/03 03:31:20;;;;;;;9.98;5.25;;;;;;;27.11;51.15;101151.13;5037703;28;20038;-78
2022/07/03 03:33:50;;;;;;;7.43;5.53;;;;;;;27.11;50.50;101156.56;5037263;28;20050;-78
2022/07/03 03:36:18;;;;;;;6.85;4.93;;;;;;;27.10;50.63;101154.88;5037847;28;20054;-78
2022/07/03 03:38:49;;;;;;;7.25;6.03;;;;;;;27.11;50.52;101159.28;5036807;28;20493;-78
2022/07/03 03:41:16;;;;;;;5.68;4.93;;;;;;;27.11;50.37;101158.44;5038371;28;20045;-78
2022/07/03 03:43:45;;;;;;;6.55;4.82;;;;;;;27.10;50.19;101157.59;5039205;28;20041;-78
2022/07/03 03:46:14;;;;;;;7.25;5.28;;;;;;;27.11;50.71;101158.44;5037985;28;20477;-78
2022/07/03 03:48:42;;;;;;;7.43;5.50;;;;;;;27.13;50.68;101163.69;5037004;28;20053;-78
2022/07/03 03:51:10;;;;;;;5.93;5.30;;;;;;;27.11;50.50;101162.00;5037846;28;20061;-78
2022/07/03 03:53:37;;;;;;;7.32;5.82;;;;;;;27.11;50.65;101162.00;5037851;28;20462;-78
2022/07/03 03:56:08;;;;;;;7.85;6.07;;;;;;;27.12;50.34;101160.13;5037036;28;20042;-78
2022/07/03 03:58:37;;;;;;;9.80;6.28;;;;;;;27.13;50.52;101160.97;5036600;28;20056;-77
2022/07/03 04:01:07;;;;;;;9.63;6.32;;;;;;;27.13;50.71;101163.69;5020154;28;20516;-78
2022/07/03 04:03:35;;;;;;;8.27;6.00;;;;;;;27.13;50.88;101169.13;5037314;28;20045;-78
2022/07/03 04:06:03;;;;;;;7.03;5.82;;;;;;;27.13;50.54;101161.81;5037525;28;20045;-78
2022/07/03 04:08:31;;;;;;;6.18;5.30;;;;;;;27.14;50.53;101165.38;5036769;28;20046;-78
2022/07/03 04:10:58;;;;;;;6.47;5.40;;;;;;;27.14;50.83;101165.38;5037138;28;20408;-78
2022/07/03 04:13:26;;;;;;;7.50;5.70;;;;;;;27.15;51.02;101167.09;5037025;28;20060;-78
2022/07/03 04:15:54;;;;;;;7.03;5.30;;;;;;;27.15;50.83;101172.53;5035827;28;20045;-77
2022/07/03 04:18:23;;;;;;;8.27;5.97;;;;;;;27.14;50.80;101171.66;5036364;28;20056;-78
2022/07/03 04:20:50;;;;;;;9.13;5.93;;;;;;;27.15;50.65;101175.25;5037269;28;20050;-78
2022/07/03 04:23:18;;;;;;;8.60;6.13;;;;;;;27.14;51.61;101185.25;5035690;28;20056;-78
2022/07/03 04:25:46;;;;;;;7.95;6.15;;;;;;;27.14;51.67;101184.41;5036969;28;20046;-78
2022/07/03 04:28:13;;;;;;;9.45;6.40;;;;;;;27.13;51.63;101189.00;5037029;28;20052;-78
2022/07/03 04:30:47;;;;;;;7.72;5.38;;;;;;;27.13;51.63;101193.59;5037062;28;20051;-78
2022/07/03 04:33:14;;;;;;;7.47;5.75;;;;;;;27.11;51.84;101197.34;5036316;28;20061;-78
2022/07/03 04:35:42;;;;;;;8.60;6.85;;;;;;;27.11;51.59;101188.34;5037187;28;20555;-78
2022/07/03 04:38:09;;;;;;;6.40;5.80;;;;;;;27.10;51.48;101182.06;5037180;28;20401;-78
2022/07/03 04:40:36;;;;;;;8.32;5.90;;;;;;;27.11;51.45;101183.75;5037749;28;20049;-77
2022/07/03 04:43:04;;;;;;;8.13;5.88;;;;;;;27.13;51.68;101213.44;5036555;28;20527;-78
2022/07/03 04:45:31;;;;;;;9.82;6.65;;;;;;;27.13;51.91;101215.31;5036382;28;20049;-77
2022/07/03 04:47:58;;;;;;;8.13;5.80;;;;;;;27.14;51.48;101211.59;5036067;28;20480;-77
2022/07/03 04:50:26;;;;;;;10.55;5.90;;;;;;;27.14;51.41;101198.00;5036639;28;20050;-77
2022/07/03 04:52:53;;;;;;;8.10;6.22;;;;;;;27.14;51.85;101211.59;5036282;28;20050;-77
2022/07/03 04:55:20;;;;;;;8.63;5.65;;;;;;;27.14;51.78;101215.13;5035181;28;20053;-77
2022/07/03 04:57:48;;;;;;;7.82;5.95;;;;;;;27.15;51.89;101214.16;5036187;28;20045;-78
2022/07/03 05:00:15;;;;;;;8.88;6.13;;;;;;;27.14;51.81;101209.72;5035763;28;20045;-78
2022/07/03 05:02:42;;;;;;;6.90;5.88;;;;;;;27.16;51.53;101215.00;5036704;28;20046;-78
2022/07/03 05:05:10;;;;;;;6.43;5.55;;;;;;;27.16;51.63;101212.28;5034974;28;20048;-78
2022/07/03 05:07:37;;;;;;;7.63;6.22;;;;;;;27.15;51.73;101213.28;5035287;28;20045;-78
2022/07/03 05:10:05;;;;;;;7.60;6.90;;;;;;;27.16;51.80;101217.69;5033753;28;20045;-78
2022/07/03 05:12:32;;;;;;;6.57;5.97;;;;;;;27.15;51.65;101225.00;5034873;28;20060;-77
2022/07/03 05:15:07;;;;;;;7.90;5.85;;;;;;;27.16;51.82;101223.97;5036642;28;20381;-78
2022/07/03 05:17:35;;;;;;;7.47;6.78;;;;;;;27.17;52.12;101216.69;5036601;28;20041;-78
2022/07/03 05:23:01;;;;;;;6.00;5.45;;;;;;;27.19;51.81;101225.50;5035913;28;20049;-78
2022/07/03 05:25:30;;;;;;;6.90;5.60;;;;;;;27.19;51.70;101223.63;5034648;28;20080;-78
2022/07/03 05:27:58;;;;;;;8.10;5.72;;;;;;;27.20;51.66;101222.63;5034641;28;20053;-78
2022/07/03 05:30:26;;;;;;;9.18;6.03;;;;;;;27.20;52.14;101216.34;5036055;28;20053;-77
2022/07/03 05:32:54;;;;;;;6.75;6.15;;;;;;;27.20;51.81;101217.19;5035012;28;20060;-78
2022/07/03 05:35:21;;;;;;;7.88;6.30;;;;;;;27.20;51.90;101206.31;5035080;28;20033;-78
2022/07/03 05:37:49;;;;;;;6.97;6.07;;;;;;;27.20;51.70;101206.31;5035238;28;20089;-78
2022/07/03 05:40:17;;;;;;;9.02;6.13;;;;;;;27.22;51.98;101212.41;5035859;28;20080;-78
2022/07/03 05:42:44;;;;;;;8.98;6.57;;;;;;;27.21;52.15;101208.00;5035751;28;20052;-78
2022/07/03 05:45:11;;;;;;;7.15;6.18;;;;;;;27.22;52.07;101211.56;5034599;28;20041;-78
2022/07/03 05:47:39;;;;;;;8.55;6.07;;;;;;;27.22;52.28;101222.44;5033995;28;20421;-78
2022/07/03 05:50:07;;;;;;;7.57;5.80;;;;;;;27.23;51.98;101229.59;5035457;28;20057;-78
2022/07/03 05:52:35;;;;;;;8.88;6.63;;;;;;;27.24;52.45;101220.41;5035306;28;20045;-78
2022/07/03 05:55:04;;;;;;;7.22;6.28;;;;;;;27.24;51.71;101225.84;5034210;28;20045;-77
2022/07/03 05:57:31;;;;;;;7.65;6.22;;;;;;;27.25;52.16;101230.25;5033888;28;20080;-77
2022/07/03 06:00:01;;;;;;;9.05;6.78;;;;;;;27.26;51.77;101226.50;5034701;28;20041;-77
2022/07/03 06:02:28;;;;;;;7.32;5.90;;;;;;;27.26;52.14;101210.19;5036186;28;20072;-77
2022/07/03 06:04:55;;;;;;;8.57;7.00;;;;;;;27.26;52.31;101215.63;5035386;28;20041;-77
2022/07/03 06:07:23;;;;;;;7.82;6.40;;;;;;;27.26;51.93;101229.22;5034415;28;20049;-77
2022/07/03 06:09:50;;;;;;;6.18;5.57;;;;;;;27.26;51.71;101230.06;5034940;28;20377;-77
2022/07/03 06:12:17;;;;;;;7.95;6.78;;;;;;;27.27;51.88;101239.09;5034760;28;20052;-77
2022/07/03 06:14:45;;;;;;;6.95;6.25;;;;;;;27.28;52.33;101238.06;5034452;28;20480;-77
2022/07/03 06:17:12;;;;;;;6.63;6.03;;;;;;;27.28;52.24;101238.06;5034692;28;20052;-77
2022/07/03 06:19:39;;;;;;;7.53;6.03;;;;;;;27.29;52.02;101239.75;5035466;28;20056;-77
2022/07/03 06:22:07;;;;;;;6.60;6.00;;;;;;;27.29;52.10;101239.75;5035198;28;20054;-78
2022/07/03 06:24:34;;;;;;;7.57;6.55;;;;;;;27.29;52.19;101243.31;5033203;28;20497;-78
2022/07/03 06:27:03;;;;;;;8.18;5.75;;;;;;;27.31;52.12;101248.59;5035146;28;20045;-78
2022/07/03 06:29:30;;;;;;;7.10;6.28;;;;;;;27.29;52.18;101240.59;5034281;28;20060;-78
2022/07/03 06:31:59;;;;;;;7.93;6.13;;;;;;;27.31;52.35;101229.56;5035512;28;20053;-77
2022/07/03 06:34:27;;;;;;;7.70;6.38;;;;;;;27.32;52.51;101231.25;5034404;28;20378;-77
2022/07/03 06:36:54;;;;;;;10.85;6.28;;;;;;;27.32;52.18;101231.25;5033912;28;20042;-77
2022/07/03 06:39:22;;;;;;;8.45;6.88;;;;;;;27.33;51.66;101232.94;5034700;28;20393;-77
2022/07/03 06:41:49;;;;;;;8.27;5.97;;;;;;;27.32;51.88;101225.81;5035253;28;20052;-77
2022/07/03 06:44:16;;;;;;;10.05;6.07;;;;;;;27.32;51.74;101233.97;5035668;28;20049;-77
2022/07/03 06:46:43;;;;;;;6.63;6.03;;;;;;;27.34;52.09;101235.47;5034555;28;20045;-77
2022/07/03 06:49:11;;;;;;;9.25;6.90;;;;;;;27.33;51.84;101222.91;5034563;28;20052;-76
2022/07/03 06:51:38;;;;;;;8.95;5.90;;;;;;;27.35;52.00;101228.19;5034183;28;20041;-77
2022/07/03 06:54:06;;;;;;;9.43;6.10;;;;;;;27.34;51.91;101216.44;5034634;28;20056;-77
2022/07/03 06:56:33;;;;;;;8.10;6.47;;;;;;;27.35;52.15;101214.59;5035246;28;20374;-77
2022/07/03 06:59:01;;;;;;;8.60;6.35;;;;;;;27.36;51.87;101216.28;5034949;28;20046;-77
2022/07/03 07:01:28;;;;;;;7.60;6.40;;;;;;;27.38;51.49;101225.09;5035627;28;20053;-78
2022/07/03 07:03:56;;;;;;;9.75;6.10;;;;;;;27.39;51.50;101225.94;5035010;28;20049;-77
2022/07/03 07:06:23;;;;;;;7.55;5.95;;;;;;;27.40;51.57;101220.34;5033232;28;20034;-77
2022/07/03 07:08:51;;;;;;;8.73;6.03;;;;;;;27.39;51.58;101210.50;5033011;28;20057;-77
2022/07/03 07:11:18;;;;;;;6.40;5.85;;;;;;;27.40;51.32;101220.34;5034153;28;20049;-77
2022/07/03 07:13:45;;;;;;;8.68;5.57;;;;;;;27.41;51.55;101222.03;5034349;28;20060;-77
2022/07/03 07:16:13;;;;;;;7.20;5.47;;;;;;;27.40;51.48;101223.06;5035403;28;20393;-78
2022/07/03 07:18:41;;;;;;;6.78;5.63;;;;;;;27.42;51.14;101221.00;5035987;28;20500;-77
2022/07/03 07:21:10;;;;;;;8.02;5.40;;;;;;;27.43;51.25;101230.00;5034970;28;20049;-77
2022/07/03 07:23:37;;;;;;;8.40;6.10;;;;;;;27.43;51.51;101222.72;5035394;28;20050;-78
2022/07/03 07:26:05;;;;;;;6.95;5.65;;;;;;;27.44;51.78;101229.84;5016425;28;20045;-78
2022/07/03 07:28:34;;;;;;;8.98;5.60;;;;;;;27.45;51.33;101220.66;5033569;28;20050;-77
2022/07/03 07:31:02;;;;;;;6.18;5.57;;;;;;;27.45;51.11;101214.38;5033032;28;20049;-77
2022/07/03 07:33:30;;;;;;;8.05;6.10;;;;;;;27.46;51.47;101216.06;5034060;28;20050;-77
2022/07/03 07:35:57;;;;;;;8.50;5.53;;;;;;;27.47;51.54;101217.78;5034126;28;20050;-77
2022/07/03 07:38:25;;;;;;;7.45;5.55;;;;;;;27.47;51.38;101212.34;5035407;28;20045;-79
2022/07/03 07:40:52;;;;;;;6.82;5.25;;;;;;;27.47;51.41;101210.47;5035559;28;20050;-81
2022/07/03 07:43:19;;;;;;;7.35;5.40;;;;;;;27.48;51.40;101220.31;5034133;28;20489;-82
2022/07/03 07:45:47;;;;;;;8.90;5.78;;;;;;;27.48;51.31;101212.16;5036886;28;20045;-82
2022/07/03 07:48:14;;;;;;;7.65;4.90;;;;;;;27.49;51.08;101222.00;5017257;28;20485;-82
2022/07/03 07:50:41;;;;;;;7.55;5.07;;;;;;;27.49;51.11;101213.84;5034764;28;20045;-78
2022/07/03 07:53:09;;;;;;;7.97;5.65;;;;;;;27.51;51.30;101210.97;5034799;28;20382;-79
2022/07/03 07:55:36;;;;;;;5.97;5.20;;;;;;;27.50;51.56;101204.63;5033724;28;20477;-78
2022/07/03 07:58:04;;;;;;;6.78;6.07;;;;;;;27.52;51.79;101204.47;5033368;28;20432;-80
2022/07/03 08:00:31;;;;;;;10.02;5.63;;;;;;;27.51;51.92;101203.63;5034767;28;20045;-76
2022/07/03 08:05:45;;;;;;;7.55;5.00;;;;;;;27.53;51.40;101192.56;5033699;28;20041;-78
2022/07/03 08:08:16;;;;;;;6.88;5.13;;;;;;;27.54;50.74;101196.97;5033426;28;20041;-78
2022/07/03 08:10:46;;;;;;;8.63;5.00;;;;;;;27.55;51.31;101193.25;5035711;28;20049;-78
2022/07/03 08:13:15;;;;;;;7.20;4.97;;;;;;;27.55;50.88;101190.53;5038412;28;20500;-78
2022/07/03 08:15:44;;;;;;;7.10;5.35;;;;;;;27.56;51.22;101189.50;5035914;28;20485;-78
2022/07/03 08:18:12;;;;;;;8.00;5.47;;;;;;;27.57;51.28;101191.19;5036710;28;20056;-83
2022/07/03 08:20:40;;;;;;;7.72;5.03;;;;;;;27.58;50.99;101195.59;5052079;28;20049;-77
2022/07/03 08:23:07;;;;;;;6.03;4.85;;;;;;;27.58;50.81;101185.56;5036601;28;20404;-77
2022/07/03 08:25:34;;;;;;;8.98;4.85;;;;;;;27.59;51.27;101189.16;5036899;28;20059;-84
2022/07/03 08:28:02;;;;;;;10.13;5.10;;;;;;;27.59;51.15;101184.56;5036105;28;20060;-78
2022/07/03 08:30:30;;;;;;;9.13;5.20;;;;;;;27.59;51.10;101187.28;5036989;28;20064;-79
2022/07/03 08:32:58;;;;;;;8.70;4.63;;;;;;;27.60;51.18;101188.13;5038577;28;20049;-80
2022/07/03 08:35:27;;;;;;;7.05;5.55;;;;;;;27.61;50.99;101190.66;5037793;28;20054;-77
2022/07/03 08:37:55;;;;;;;7.22;5.25;;;;;;;27.63;50.76;101192.34;5036324;28;20042;-78
2022/07/03 08:40:22;;;;;;;7.97;5.30;;;;;;;27.64;50.39;101196.78;5036058;28;20045;-77
2022/07/03 08:42:55;;;;;;;5.75;5.03;;;;;;;27.63;50.39;101185.06;5035851;28;20362;-78
2022/07/03 08:45:23;;;;;;;8.05;5.07;;;;;;;27.65;50.08;101174.00;5036043;28;20052;-76
2022/07/03 08:47:54;;;;;;;7.45;5.10;;;;;;;27.66;50.12;101178.41;5036261;28;20369;-75
2022/07/03 08:50:22;;;;;;;8.95;5.40;;;;;;;27.67;50.15;101180.09;5034842;28;20465;-76
2022/07/03 08:52:50;;;;;;;5.35;4.85;;;;;;;27.68;50.01;101166.31;5035668;28;20385;-75
2022/07/03 08:55:18;;;;;;;6.45;5.57;;;;;;;27.69;50.04;101167.16;5035714;28;20045;-76
2022/07/03 08:57:47;;;;;;;5.75;4.55;;;;;;;27.71;50.06;101165.09;5035497;28;20052;-75
2022/07/03 09:00:17;;;;;;;8.25;5.18;;;;;;;27.73;49.50;101184.81;5035452;28;20045;-77
2022/07/03 09:02:47;;;;;;;8.38;5.35;;;;;;;27.74;50.21;101168.34;5037957;28;20059;-76
2022/07/03 09:05:16;;;;;;;9.45;5.40;;;;;;;27.76;49.76;101171.75;5049812;28;20040;-77
2022/07/03 09:07:45;;;;;;;8.60;5.15;;;;;;;27.77;50.11;101162.56;5049085;28;20457;-77
2022/07/03 09:10:15;;;;;;;7.63;4.88;;;;;;;27.78;50.22;101168.84;5050454;28;20052;-77
2022/07/03 09:12:44;;;;;;;8.15;5.05;;;;;;;27.77;49.99;101168.00;5044300;28;20037;-77
2022/07/03 09:15:11;;;;;;;6.43;5.05;;;;;;;27.79;50.38;101170.53;5033507;28;20049;-76
2022/07/03 09:17:39;;;;;;;8.13;5.00;;;;;;;27.79;50.07;101170.53;5034834;28;20046;-77
2022/07/03 09:20:07;;;;;;;8.48;4.97;;;;;;;27.82;49.29;101167.44;5035193;28;20049;-79
2022/07/03 09:22:36;;;;;;;9.57;5.28;;;;;;;27.85;49.11;101164.38;5051992;28;20056;-80
2022/07/03 09:25:05;;;;;;;9.93;6.40;;;;;;;27.88;49.51;101165.91;5055059;28;20065;-78
2022/07/03 09:27:33;;;;;;;11.65;5.68;;;;;;;27.88;49.84;101164.03;5054353;28;20041;-77
2022/07/03 09:30:01;;;;;;;7.13;5.45;;;;;;;27.90;50.09;101164.66;5053186;28;20049;-77
2022/07/03 09:32:34;;;;;;;11.13;5.60;;;;;;;27.90;50.07;101164.66;5055648;28;20052;-76
2022/07/03 09:35:23;;;;;;;8.18;5.32;;;;;;;27.91;50.20;101166.34;5055038;28;20056;-77
2022/07/03 09:38:01;;;;;;;7.97;5.40;;;;;;;27.91;50.53;101154.63;5054152;28;20060;-81
2022/07/03 09:40:54;;;;;;;6.60;5.25;;;;;;;27.93;50.39;101153.44;5052016;28;20052;-78
2022/07/03 09:43:29;;;;;;;6.88;4.57;;;;;;;27.98;50.56;101155.59;5052821;28;20061;-78
2022/07/03 09:46:01;;;;;;;7.30;5.03;;;;;;;27.97;50.14;101149.31;5052681;28;20049;-78
2022/07/03 09:48:34;;;;;;;8.65;4.85;;;;;;;27.97;50.11;101157.47;5054130;28;20481;-78
2022/07/03 09:51:23;;;;;;;8.35;5.28;;;;;;;27.96;50.31;101153.06;5053029;28;20053;-75
2022/07/03 09:54:02;;;;;;;6.10;5.10;;;;;;;27.95;50.44;101151.34;5054141;28;20041;-77
2022/07/03 09:56:37;;;;;;;6.80;4.80;;;;;;;27.96;50.13;101155.81;5053409;28;20418;-77
2022/07/03 09:59:13;;;;;;;6.20;4.18;;;;;;;27.97;50.30;101152.03;5054200;28;20052;-78
2022/07/03 10:01:46;;;;;;;5.55;4.70;;;;;;;27.97;50.56;101145.75;5053230;28;20052;-78
2022/07/03 10:04:22;;;;;;;7.70;5.13;;;;;;;27.98;50.85;101147.44;5052792;28;20049;-79
2022/07/03 10:06:54;;;;;;;7.20;4.18;;;;;;;27.98;51.08;101142.84;5053683;28;20225;-78
2022/07/03 10:09:37;;;;;;;6.18;4.32;;;;;;;27.98;50.96;101144.72;5053838;28;20048;-79
2022/07/03 10:12:05;;;;;;;6.43;4.80;;;;;;;27.98;51.11;101139.28;5054158;28;20053;-79
2022/07/03 10:14:32;;;;;;;6.28;4.85;;;;;;;27.98;51.59;101134.69;5044805;28;20045;-77
2022/07/03 10:17:01;;;;;;;8.68;5.18;;;;;;;27.99;51.80;101140.97;5032714;28;20029;-77
2022/07/03 10:19:30;;;;;;;10.07;5.18;;;;;;;27.99;52.66;101146.41;5052479;28;20472;-78
2022/07/03 10:22:01;;;;;;;5.22;4.72;;;;;;;27.98;51.40;101136.56;5052129;28;20049;-78
2022/07/03 10:24:30;;;;;;;6.38;4.85;;;;;;;27.98;51.52;101139.28;5045397;28;20361;-76
2022/07/03 10:26:58;;;;;;;5.72;4.80;;;;;;;27.99;51.44;101138.25;5033513;28;20041;-77
2022/07/03 10:29:28;;;;;;;7.47;5.13;;;;;;;27.99;51.47;101138.25;5033424;28;20046;-79
2022/07/03 10:31:57;;;;;;;5.45;4.72;;;;;;;27.97;51.92;101133.00;5033746;28;20483;-78
2022/07/03 10:34:28;;;;;;;4.85;4.35;;;;;;;27.99;51.62;101130.06;5021148;28;20056;-77
2022/07/03 10:37:04;;;;;;;8.20;4.80;;;;;;;27.99;52.04;101130.06;5021915;28;20041;-79
2022/07/03 10:39:56;;;;;;;5.25;4.57;;;;;;;27.98;51.99;101126.50;5032874;28;20052;-77
2022/07/03 10:45:19;;;;;;;6.82;4.70;;;;;;;27.98;52.92;101129.22;5033730;28;20049;-76
2022/07/03 10:47:48;;;;;;;4.95;4.18;;;;;;;27.98;52.73;101129.22;5033441;28;20053;-76
2022/07/03 10:50:21;;;;;;;5.50;4.97;;;;;;;27.97;52.85;101119.38;5032317;28;20152;-76
2022/07/03 10:52:49;;;;;;;5.55;4.30;;;;;;;27.97;52.86;101122.09;5033296;28;20388;-77
2022/07/03 10:55:18;;;;;;;5.32;4.75;;;;;;;27.96;52.21;101123.13;5031518;28;20041;-77
2022/07/03 10:58:08;;;;;;;5.65;5.10;;;;;;;27.98;52.34;101133.84;5032656;28;20052;-77
2022/07/03 11:00:58;;;;;;;5.38;4.57;;;;;;;27.98;52.94;101122.94;5033304;28;20046;-77
2022/07/03 11:03:57;;;;;;;5.95;4.45;;;;;;;27.97;52.63;101122.09;5033685;28;20049;-77
2022/07/03 11:06:48;;;;;;;6.75;4.80;;;;;;;27.98;53.05;101120.22;5019062;28;20402;-77
2022/07/03 11:09:15;;;;;;;5.53;5.00;;;;;;;27.94;52.59;101116.19;5033514;28;20374;-76
2022/07/03 11:11:57;;;;;;;8.18;4.72;;;;;;;27.76;50.64;101108.34;5022454;28;20413;-77
2022/07/03 11:14:26;;;;;;;7.63;5.20;;;;;;;27.52;50.10;101102.00;5018865;28;20037;-77
2022/07/03 11:17:26;;;;;;;7.40;5.20;;;;;;;27.39;49.34;101101.75;5026948;28;20485;-76
2022/07/03 11:23:09;;;;;;;8.05;4.82;;;;;;;27.14;48.78;101090.13;5013479;28;20049;-75
2022/07/03 11:25:47;;;;;;;7.32;4.70;;;;;;;27.07;48.53;101095.41;5021730;28;20122;-76
2022/07/03 11:28:33;;;;;;;5.50;5.00;;;;;;;26.94;47.40;101086.97;5024852;28;20164;-75
2022/07/03 11:31:10;;;;;;;6.40;5.15;;;;;;;26.84;46.85;101080.88;5026633;28;20054;-76
2022/07/03 11:33:53;;;;;;;7.45;4.70;;;;;;;26.75;46.12;101074.66;5013485;28;20085;-76
2022/07/03 11:36:31;;;;;;;6.72;4.90;;;;;;;26.69;45.67;101078.03;5011808;28;20405;-76
2022/07/03 11:38:59;;;;;;;6.05;4.72;;;;;;;26.63;45.21;101079.59;5011195;28;20402;-76
2022/07/03 11:41:29;;;;;;;7.97;4.50;;;;;;;26.55;44.97;101076.06;5010163;28;20161;-77
2022/07/03 11:43:59;;;;;;;6.63;4.93;;;;;;;26.49;44.53;101076.75;5020829;28;20050;-76
2022/07/03 11:46:28;;;;;;;10.20;4.90;;;;;;;26.44;44.12;101068.25;5033132;28;20049;-76
2022/07/03 11:49:08;;;;;;;7.07;4.72;;;;;;;26.39;43.81;101064.19;5034181;28;20086;-77
2022/07/03 11:51:38;;;;;;;7.53;4.70;;;;;;;26.35;43.44;101059.28;5034208;28;20064;-77
2022/07/03 11:54:06;;;;;;;6.10;4.20;;;;;;;26.31;43.21;101049.78;5035815;28;20053;-78
2022/07/03 11:56:35;;;;;;;6.70;4.60;;;;;;;26.29;43.17;101054.53;5036286;28;20049;-78